Cedar Beach, New Jersey
Current Conditions -  °F | °C
As of 7:15 PM on Friday 28 Nov 2014 (Local Time) from KLDJ Reporting Station
Clear Clear  
Wind Chill: 33°   Ceiling: Unl
Heat Index: 33°   Visibility: 10mi
Dew Point: 17°   Wind: 3mph
Humidity: 52%   Direction: 320°NW
Pressure: 30.28"   Gusts: NA
Location:  40.431°N, 74.1031°W
Report Text: KLDJ 290015Z AUTO 32003KT 10SM CLR 01/M08 A3028 RMK AO2 T00051083
Loading
Personal Weather Stations






























Interactive Weather Map New forecast layout! Learn more

10-Day Weather Forecast

Advertisements
Track Severe Weather on mobile